Home > Products > Valid Products > TAF

000
FTUS45 KPSR 220900 AAA
TAFPHX
TAF AMD
KPHX 220904Z 2209/2306 09004KT P6SM SKC
     FM222000 26006KT P6SM SCT250
     FM230400 10004KT P6SM SCT250=



000
FTUS45 KPSR 220500
TAFIWA
TAF
KIWA 220520Z 2206/2306 11005KT P6SM SKC
     FM221900 27006KT P6SM SCT250
     FM230300 12005KT P6SM SCT250
      AMD LTD TO CLD VIS AND WIND TIL 221300=



000
FTUS45 KPSR 220500
TAFBLH
TAF
KBLH 220520Z 2206/2306 33005KT P6SM SKC
     FM221200 VRB03KT P6SM FEW250
     FM222100 19006KT P6SM SCT250=



000
FTUS45 KPSR 220500
TAFIPL
TAF
KIPL 220520Z 2206/2306 26005KT P6SM SKC
     FM221500 VRB03KT P6SM FEW250
     FM230200 27007KT P6SM SCT250=



000
FTUS45 KPSR 220500
TAFPHX
TAF
KPHX 220520Z 2206/2306 24003KT P6SM SKC
     FM220700 09004KT P6SM SKC
     FM222000 26006KT P6SM SCT250
     FM230400 10004KT P6SM SCT250=



000
FTUS45 KPSR 220500
TAFIWA
TAF
KIWA 220520Z 2206/2306 11005KT P6SM SKC
     FM221900 27006KT P6SM SCT250
     FM230300 12005KT P6SM SCT250
      AMD LTD TO CLD VIS AND WIND TIL 221300=



000
FTUS45 KPSR 220200 AAA
TAFPHX
TAF AMD
KPHX 220246Z 2203/2224 25004KT P6SM FEW150
     FM220700 08005KT P6SM SKC
     FM222000 26005KT P6SM SCT250=



000
FTUS45 KPSR 212300
TAFIWA
TAF
KIWA 212320Z 2200/2224 31005KT P6SM FEW100 BKN150
     FM220400 11006KT P6SM SKC
     FM221900 28005KT P6SM SCT250
      AMD LTD TO CLD VIS AND WIND 2203/2213=



000
FTUS45 KPSR 212300
TAFIPL
TAF
KIPL 212320Z 2200/2224 28006KT P6SM SKC
     FM221400 VRB03KT P6SM SCT250=



000
FTUS45 KPSR 212300
TAFPHX
TAF
KPHX 212320Z 2200/2224 32006KT P6SM BKN150
     FM220700 08005KT P6SM SKC
     FM222000 26005KT P6SM SCT250=



000
FTUS45 KPSR 212300
TAFBLH
TAF
KBLH 212320Z 2200/2224 35005KT P6SM SKC
     FM221000 VRB03KT P6SM SKC
     FM222100 19006KT P6SM SCT250=



000
FTUS45 KPSR 212300
TAFIWA
TAF
KIWA 212320Z 2200/2224 31005KT P6SM FEW100 BKN150
     FM220400 11006KT P6SM SKC
     FM221900 28005KT P6SM SCT250
      AMD LTD TO CLD VIS AND WIND 2203/2213=



000
FTUS45 KPSR 212000 AAA
TAFPHX
TAF AMD
KPHX 212047Z 2121/2218 26008KT P6SM BKN120 BKN160 BKN200
     FM220400 VRB04KT P6SM FEW080 FEW120 SCT180
     FM220900 10005KT P6SM SKC=



000
FTUS45 KPSR 211700
TAFIPL
TAF
KIPL 211737Z 2118/2218 27010KT P6SM FEW080 SCT120
      TEMPO 2118/2120 31012G22KT BKN080
     FM220200 27006KT P6SM SKC=



000
FTUS45 KPSR 211700
TAFPHX
TAF
KPHX 211737Z 2118/2218 09005KT P6SM FEW120 BKN200
     FM212000 26006KT P6SM FEW090 SCT120 BKN200
     FM220400 VRB04KT P6SM FEW120
     FM220900 10005KT P6SM SKC=



000
FTUS45 KPSR 211700
TAFIWA
TAF
KIWA 211737Z 2118/2218 VRB04KT P6SM FEW120 BKN200
     FM212100 30005KT P6SM FEW090 SCT120 BKN200
     FM220400 12006KT P6SM SKC=



000
FTUS45 KPSR 211700
TAFBLH
TAF
KBLH 211737Z 2118/2218 VRB04KT P6SM FEW070
     FM212000 33006KT P6SM SKC
     FM220600 VRB03KT P6SM SKC=



000
FTUS45 KPSR 211700
TAFIWA
TAF
KIWA 211737Z 2118/2218 VRB04KT P6SM FEW120 BKN200
     FM212100 30005KT P6SM FEW090 SCT120 BKN200
     FM220400 12006KT P6SM SKC=



000
FTUS45 KPSR 211500 AAA
TAFBLH
TAF AMD
KBLH 211516Z 2115/2212 33006KT P6SM SCT080 SCT110 BKN200
      TEMPO 2115/2118 VRB20G30KT 4SM -TSRA BKN070CB
     FM211800 33008KT P6SM FEW070 SCT120
     FM212300 31006KT P6SM SKC=



000
FTUS45 KPSR 211500 AAA
TAFIPL
TAF AMD
KIPL 211505Z 2115/2212 29008KT P6SM SCT070 BKN120
      TEMPO 2115/2117 31015G25KT 5SM -TSRA BKN070CB
     FM211700 33012KT P6SM SCT070 SCT120
     FM220200 27006KT P6SM SKC=



000
FTUS45 KPSR 211400 AAA
TAFPHX
TAF AMD
KPHX 211452Z 2115/2212 09006KT P6SM FEW120 SCT150 BKN200
     FM211700 VRB03KT P6SM VCSH SCT090 BKN120
     FM220000 32005KT P6SM SCT120 SCT200=



000
FTUS45 KPSR 211100
TAFIWA
TAF
KIWA 211129Z 2112/2212 11005KT P6SM BKN200
     FM212200 31007KT P6SM BKN100
     FM220500 11005KT P6SM SKC
      AMD LTD TO CLD VIS AND WIND TIL 211300=



000
FTUS45 KPSR 211100
TAFBLH
TAF
KBLH 211129Z 2112/2212 35008KT P6SM FEW100 SCT140
      TEMPO 2112/2115 BKN120=



000
FTUS45 KPSR 211100
TAFIWA
TAF
KIWA 211129Z 2112/2212 11005KT P6SM BKN200
     FM212200 31007KT P6SM BKN100
     FM220500 11005KT P6SM SKC
      AMD LTD TO CLD VIS AND WIND TIL 211300=



000
FTUS45 KPSR 211100
TAFIPL
TAF
KIPL 211129Z 2112/2212 27008KT P6SM BKN140
      TEMPO 2112/2114 27012G20KT
     FM211700 33012KT P6SM FEW080
     FM220200 27006KT P6SM SKC=



000
FTUS45 KPSR 211100
TAFPHX
TAF
KPHX 211129Z 2112/2212 09006KT P6SM BKN200
     FM211800 VRB03KT P6SM BKN120
     FM220000 32005KT P6SM SCT120 SCT200=



000
FTUS45 KPSR 210800 AAA
TAFPHX
TAF AMD
KPHX 210859Z 2109/2206 09006KT P6SM BKN200
     FM211800 VRB03KT P6SM BKN120
     FM220000 32006KT P6SM SCT120 SCT200=



000
FTUS45 KPSR 210500
TAFBLH
TAF
KBLH 210520Z 2106/2206 VRB04KT P6SM BKN200
     FM211500 34008KT P6SM SCT150=



000
FTUS45 KPSR 210500
TAFIWA
TAF
KIWA 210520Z 2106/2206 11005KT P6SM BKN200
     FM212200 31007KT P6SM BKN100
     FM220500 11005KT P6SM SKC
      AMD LTD TO CLD VIS AND WIND TIL 211300=



000
FTUS45 KPSR 210500
TAFIWA
TAF
KIWA 210520Z 2106/2206 11005KT P6SM BKN200
     FM212200 31007KT P6SM BKN100
     FM220500 11005KT P6SM SKC
      AMD LTD TO CLD VIS AND WIND TIL 211300=



000
FTUS45 KPSR 210500
TAFIPL
TAF
KIPL 210520Z 2106/2206 27008KT P6SM BKN200
      TEMPO 2111/2114 27012G20KT
     FM211700 32012KT P6SM FEW050
     FM220200 27006KT P6SM SKC=



000
FTUS45 KPSR 210500
TAFPHX
TAF
KPHX 210520Z 2106/2206 09006KT P6SM BKN200
     FM212200 32006KT P6SM BKN100=



000
FTUS45 KPSR 210200 AAA
TAFPHX
TAF AMD
KPHX 210259Z 2103/2124 09004KT P6SM BKN200
     FM212200 32006KT P6SM OVC100=



000
FTUS45 KPSR 210200 AAA
TAFBLH
TAF AMD
KBLH 210259Z 2103/2124 VRB04KT P6SM BKN200
     FM211500 34008KT P6SM BKN150=



000
FTUS45 KPSR 202300
TAFIWA
TAF
KIWA 202320Z 2100/2124 29004KT P6SM BKN250
     FM210300 11004KT P6SM BKN200
     FM212200 31007KT P6SM OVC100
      AMD LTD TO CLD VIS AND WIND 2103/2113=



000
FTUS45 KPSR 202300
TAFPHX
TAF
KPHX 202320Z 2100/2124 27004KT P6SM BKN250
     FM210300 09004KT P6SM BKN200
     FM212200 32006KT P6SM OVC100=



000
FTUS45 KPSR 202300
TAFBLH
TAF
KBLH 202320Z 2100/2124 17004KT P6SM BKN250
     FM210700 VRB04KT P6SM BKN200
     FM211500 34008KT P6SM BKN150=



000
FTUS45 KPSR 202300
TAFIWA
TAF
KIWA 202320Z 2100/2124 29004KT P6SM BKN250
     FM210300 11004KT P6SM BKN200
     FM212200 31007KT P6SM OVC100
      AMD LTD TO CLD VIS AND WIND 2103/2113=



000
FTUS45 KPSR 202300
TAFIPL
TAF
KIPL 202320Z 2100/2124 15004KT P6SM BKN250
     FM210400 25007KT P6SM BKN200
      TEMPO 2111/2114 27012G20KT
     FM211500 31011KT P6SM FEW050=



000
FTUS45 KPSR 202100 AAA
TAFPHX
TAF AMD
KPHX 202108Z 2021/2118 VRB05KT P6SM SCT250
      TEMPO 2022/2101 25005KT
     FM210500 10004KT P6SM BKN200=



000
FTUS45 KPSR 201700
TAFBLH
TAF
KBLH 201721Z 2018/2118 VRB04KT P6SM FEW250
     FM210200 21004KT P6SM BKN200
     FM210900 31005KT P6SM BKN150=



000
FTUS45 KPSR 201700
TAFIWA
TAF
KIWA 201721Z 2018/2118 15005KT P6SM FEW250
     FM202000 25004KT P6SM SCT250
     FM210400 11004KT P6SM BKN200=



000
FTUS45 KPSR 201700
TAFPHX
TAF
KPHX 201721Z 2018/2118 VRB05KT P6SM SCT250
      TEMPO 2022/2101 25005KT
     FM210500 10004KT P6SM BKN200=



000
FTUS45 KPSR 201700
TAFIWA
TAF
KIWA 201721Z 2018/2118 15005KT P6SM FEW250
     FM202000 25004KT P6SM SCT250
     FM210400 11004KT P6SM BKN200=



000
FTUS45 KPSR 201700
TAFIPL
TAF
KIPL 201721Z 2018/2118 VRB04KT P6SM SCT250
     FM210400 25004KT P6SM BKN200=



000
FTUS45 KPSR 201400 AAA
TAFPHX
TAF AMD
KPHX 201453Z 2015/2112 10004KT P6SM FEW250
     FM201700 VRB03KT P6SM SCT250
      TEMPO 2022/2101 25005KT
     FM210500 10004KT P6SM BKN200=



000
FTUS45 KPSR 201100
TAFBLH
TAF
KBLH 201136Z 2012/2112 VRB04KT P6SM FEW250
     FM210200 21004KT P6SM SCT200 BKN250
     FM210800 31005KT P6SM BKN150=



000
FTUS45 KPSR 201100
TAFPHX
TAF
KPHX 201136Z 2012/2112 10004KT P6SM FEW250
     FM202000 VRB03KT P6SM SCT250
      TEMPO 2022/2101 25005KT
     FM210500 10004KT P6SM BKN200=



000
FTUS45 KPSR 201100
TAFIWA
TAF
KIWA 201136Z 2012/2112 11007KT P6SM FEW250
     FM202000 25004KT P6SM SCT250
     FM210400 11004KT P6SM BKN200
      AMD LTD TO CLD VIS AND WIND TIL 201300=



000
FTUS45 KPSR 201100
TAFIPL
TAF
KIPL 201136Z 2012/2112 27004KT P6SM FEW250
     FM201800 VRB04KT P6SM SCT250
     FM210400 25004KT P6SM BKN200=



000
FTUS45 KPSR 201100
TAFIWA
TAF
KIWA 201136Z 2012/2112 11007KT P6SM FEW250
     FM202000 25004KT P6SM SCT250
     FM210400 11004KT P6SM BKN200
      AMD LTD TO CLD VIS AND WIND TIL 201300=



000
FTUS45 KPSR 200800 AAA
TAFPHX
TAF AMD
KPHX 200856Z 2009/2106 10004KT P6SM FEW250
     FM202000 VRB03KT P6SM SCT250
      TEMPO 2022/2101 25005KT
     FM210500 10004KT P6SM FEW200 OVC250=



000
FTUS45 KPSR 200500
TAFIWA
TAF
KIWA 200520Z 2006/2106 11005KT P6SM FEW250
     FM202000 25004KT P6SM FEW250
     FM210400 11004KT P6SM FEW200 BKN250
      AMD LTD TO CLD VIS AND WIND TIL 201300=



000
FTUS45 KPSR 200500
TAFIWA
TAF
KIWA 200520Z 2006/2106 11005KT P6SM FEW250
     FM202000 25004KT P6SM FEW250
     FM210400 11004KT P6SM FEW200 BKN250
      AMD LTD TO CLD VIS AND WIND TIL 201300=



000
FTUS45 KPSR 200500
TAFIPL
TAF
KIPL 200520Z 2006/2106 27004KT P6SM FEW250
     FM201800 VRB04KT P6SM FEW250
     FM210300 25004KT P6SM SCT200 BKN250=



000
FTUS45 KPSR 200500
TAFBLH
TAF
KBLH 200520Z 2006/2106 34003KT P6SM FEW250
     FM201400 VRB04KT P6SM FEW250
     FM210200 21004KT P6SM SCT200 BKN250=



000
FTUS45 KPSR 200500
TAFPHX
TAF
KPHX 200520Z 2006/2106 10004KT P6SM FEW250
     FM202200 25004KT P6SM FEW250
     FM210500 10004KT P6SM FEW200 BKN250=



000
FTUS45 KPSR 200200 AAA
TAFPHX
TAF AMD
KPHX 200251Z 2003/2024 VRB04KT P6SM FEW200
     FM200500 10004KT P6SM FEW250
     FM202200 25004KT P6SM FEW250=



000
FTUS45 KPSR 192300
TAFBLH
TAF
KBLH 192320Z 2000/2024 VRB03KT P6SM SCT250
     FM200500 31003KT P6SM FEW250
     FM201400 VRB04KT P6SM FEW250=



000
FTUS45 KPSR 192300
TAFIWA
TAF
KIWA 192320Z 2000/2024 VRB04KT P6SM SCT250
     FM200200 11005KT P6SM FEW250
     FM202000 25004KT P6SM FEW250
      AMD LTD TO CLD VIS AND WIND 2003/2013=



000
FTUS45 KPSR 192300
TAFIPL
TAF
KIPL 192320Z 2000/2024 VRB03KT P6SM FEW250
     FM200200 27004KT P6SM FEW250
     FM201800 VRB04KT P6SM FEW250=



000
FTUS45 KPSR 192300
TAFIWA
TAF
KIWA 192320Z 2000/2024 VRB04KT P6SM SCT250
     FM200200 11005KT P6SM FEW250
     FM202000 25004KT P6SM FEW250
      AMD LTD TO CLD VIS AND WIND 2003/2013=



000
FTUS45 KPSR 192300
TAFPHX
TAF
KPHX 192320Z 2000/2024 VRB04KT P6SM FEW250
     FM200400 10004KT P6SM FEW250
     FM202200 25004KT P6SM FEW250=



000
FTUS45 KPSR 192000 AAA
TAFPHX
TAF AMD
KPHX 192051Z 1921/2018 VRB05KT P6SM BKN250
     FM192300 29003KT P6SM BKN250
     FM200600 10004KT P6SM BKN250=



000
FTUS45 KPSR 191700
TAFBLH
TAF
KBLH 191721Z 1918/2018 VRB03KT P6SM SCT250
     FM200500 31003KT P6SM SCT200=



000
FTUS45 KPSR 191700
TAFPHX
TAF
KPHX 191721Z 1918/2018 10006KT P6SM SCT250
     FM192300 29003KT P6SM SCT250
     FM200600 10004KT P6SM FEW250=



000
FTUS45 KPSR 191700
TAFIWA
TAF
KIWA 191721Z 1918/2018 12004KT P6SM SCT250
     FM192100 29004KT P6SM SCT250
     FM200400 11004KT P6SM FEW250=



000
FTUS45 KPSR 191700
TAFIPL
TAF
KIPL 191721Z 1918/2018 VRB03KT P6SM SKC
     FM200200 27004KT P6SM SKC=



000
FTUS45 KPSR 191700
TAFIWA
TAF
KIWA 191721Z 1918/2018 12004KT P6SM SCT250
     FM192100 29004KT P6SM SCT250
     FM200400 11004KT P6SM FEW250=



000
FTUS45 KPSR 191400 AAA
TAFPHX
TAF AMD
KPHX 191452Z 1915/2012 10004KT P6SM SCT250
     FM192300 29003KT P6SM SCT250
     FM200500 10004KT P6SM FEW250=



000
FTUS45 KPSR 191100
TAFIWA
TAF
KIWA 191120Z 1912/2012 12004KT P6SM SCT250
     FM192100 29004KT P6SM SCT250
     FM200400 11004KT P6SM FEW250
      AMD LTD TO CLD VIS AND WIND TIL 191300=



000
FTUS45 KPSR 191100
TAFPHX
TAF
KPHX 191120Z 1912/2012 10004KT P6SM SCT250
     FM192300 29003KT P6SM SCT250
     FM200500 10004KT P6SM FEW250=



000
FTUS45 KPSR 191100
TAFIWA
TAF
KIWA 191120Z 1912/2012 12004KT P6SM SCT250
     FM192100 29004KT P6SM SCT250
     FM200400 11004KT P6SM FEW250
      AMD LTD TO CLD VIS AND WIND TIL 191300=



000
FTUS45 KPSR 191100
TAFBLH
TAF
KBLH 191120Z 1912/2012 VRB03KT P6SM SCT250
     FM200500 31003KT P6SM SCT200=



000
FTUS45 KPSR 191100
TAFIPL
TAF
KIPL 191120Z 1912/2012 26005KT P6SM SCT250
     FM191700 VRB03KT P6SM SKC
     FM200200 27004KT P6SM SKC=



    US Dept of Commerce
    National Oceanic and Atmospheric Administration
    National Weather Service
    1325 East West Highway
    Silver Spring, MD 20910
    Page Author: NWS Internet Services Team
Disclaimer
Information Quality
Credits
Glossary
Privacy Policy
Freedom of Information Act (FOIA)
About Us
Career Opportunities